Aérodrome :
LOGIN :

S'inscrire | Disclaimer

   EN    FR    IT 

 










Légende :    VFR   VFR Marginal   IFR   IFR Intensif   IFR Très Intensif
Visi : 
Plafond : 
>= 8 km
>= 3000ft
5 à 8 km
1000 à 3000 ft
1500m à 5 km
500 à 1000 ft
800 à 1500m
200 à 500 ft
< 800m
< 200 ft
Symboles :   Orages  Brouillard  Fortes neiges  Fortes précipitations  Vent > 20 kt
SIGMETs :   Divers  Orages  Givrage  Turbulence  Onde Orograph.  Cendres Volcan.







- Altitude de l'aérodrome : 464 ft
- Code IATA : EVX
- Voir les cartes d'approche


LFOE - Evreux

DERNIER METAR :
  • 221000Z AUTO 20008KT 2700 BR FEW006/// SCT019/// BKN054/// ///TCU 01/01 Q1006 BECMG 7000 NSW BKN015

METARs EXPIRÉS :
  • 220930Z AUTO 19008KT 2500 -RA BR SCT006/// BKN015/// BKN025/// ///TCU 01/01 Q1006 BECMG 7000 NSW BKN015
  • 220900Z AUTO 20008KT 2700 -RA BR SCT006 BKN018 BKN028 01/01 Q1006 TEMPO BKN008 BECMG 7000 NSW
  • 220830Z AUTO 19010KT 1700 -SN BR BKN005 OVC017 01/00 Q1007 BECMG 7000 NSW BKN015
  • 220800Z AUTO 18009KT 2200 -RA BR BKN004 OVC010 01/00 Q1007 BECMG 7000 NSW BKN008
  • 220730Z AUTO 18008KT 2100 -SN BR BKN004/// OVC009/// ///CB 00/00 Q1007 BECMG 7000 NSW BKN008

TAF AMD TAF LFOE
Valide du 22 à 09h jusqu'au 23 à 09h UTC


220930Z 2209/2309 22010KT 3000 BR BKN004 BKN015
BECMG 2209/2212 7000 NSW BKN015
TEMPO 2212/2309 32015G25KT 3000 -SHRASN BKN015CB
PROB40
TEMPO 2212/2219 1500 -SHRAGS
BECMG 2216/2219 4000 BR BKN005
PROB40
TEMPO 2219/2309 1000 -SHSN BKN004 BKN015CB
BECMG 2306/2309 30010KT
Pas de NOTAMs connus pour ce terrain.



MET'MAP, la Météo Aéronautique d'un coup d'oeil ! - Copyright ORBIFLY Décembre 2007 - Disclaimer

ORBIFLY MET'MAP TEAM :

Programmation & Développement : Alexandra Zaïnal
Conception & Développement : Baudouin d'Aumeries
Co-Programmation & Développement : Marc-Olivier Méhu
Soutien technique & logistique : Manuel Goepfert

Contact : metmap@orbifly.com




SOURCES & CREDITS :

   NOAA